createdAt,value
2017-03-31T00:00:41.524Z,77.48
2017-03-31T00:01:50.784Z,78.05
2017-03-31T00:02:59.787Z,77.86
2017-03-31T00:04:08.754Z,78.34
2017-03-31T00:05:17.706Z,77.76
2017-03-31T00:06:26.665Z,78.14
2017-03-31T00:07:35.870Z,77.95
2017-03-31T00:08:44.827Z,77.19
2017-03-31T00:09:53.783Z,77.57
2017-03-31T00:11:02.743Z,77.95
2017-03-31T00:12:11.702Z,77.76
2017-03-31T00:13:20.959Z,77.76
2017-03-31T00:14:29.917Z,78.05
2017-03-31T00:15:38.958Z,77.76
2017-03-31T00:16:47.909Z,78.14
2017-03-31T00:17:56.866Z,78.14
2017-03-31T00:19:06.071Z,78.24
2017-03-31T00:20:15.031Z,77.76
2017-03-31T00:21:23.987Z,77.76
2017-03-31T00:22:32.951Z,77.57
2017-03-31T00:23:41.996Z,78.14
2017-03-31T00:24:51.255Z,78.14
2017-03-31T00:26:00.301Z,78.05
2017-03-31T00:27:09.257Z,78.34
2017-03-31T00:28:18.217Z,78.49
2017-03-31T00:29:27.170Z,78.14
2017-03-31T00:30:36.511Z,78.24
2017-03-31T00:31:45.469Z,77.72
2017-03-31T00:32:54.510Z,77.95
2017-03-31T00:34:03.474Z,78.01
2017-03-31T00:35:12.430Z,78.58
2017-03-31T00:36:21.687Z,78.3
2017-03-31T00:37:30.649Z,78.49
2017-03-31T00:38:39.695Z,78.43
2017-03-31T00:39:48.657Z,78.58
2017-03-31T00:40:57.618Z,78.3
2017-03-31T00:42:06.875Z,78.11
2017-03-31T00:43:15.830Z,78.01
2017-03-31T00:44:24.784Z,78.58
2017-03-31T00:45:33.740Z,78.11
2017-03-31T00:46:42.784Z,77.72
2017-03-31T00:47:52.127Z,77.92
2017-03-31T00:49:01.085Z,78.01
2017-03-31T00:50:10.130Z,77.92
2017-03-31T00:51:19.085Z,78.01
2017-03-31T00:52:28.041Z,78.11
2017-03-31T00:53:37.246Z,77.53
2017-03-31T00:54:46.200Z,78.11
2017-03-31T00:55:55.157Z,78.01
2017-03-31T00:57:04.116Z,77.92
2017-03-31T00:58:13.076Z,78.11
2017-03-31T00:59:22.419Z,77.72
2017-03-31T01:00:31.381Z,77.44
2017-03-31T01:01:40.342Z,77.53
2017-03-31T01:02:49.301Z,77.92
2017-03-31T01:03:58.588Z,77.53
2017-03-31T01:05:07.801Z,77.72
2017-03-31T01:06:16.790Z,77.72
2017-03-31T01:07:25.748Z,77.82
2017-03-31T01:08:34.700Z,77.82
2017-03-31T01:09:43.657Z,77.44
2017-03-31T01:10:52.867Z,77.82
2017-03-31T01:12:01.827Z,77.92
2017-03-31T01:13:10.785Z,77.92
2017-03-31T01:14:19.743Z,77.72
2017-03-31T01:15:28.701Z,78.11
2017-03-31T01:16:37.958Z,78.11
2017-03-31T01:17:46.912Z,77.82
2017-03-31T01:18:55.868Z,77.72
2017-03-31T01:20:04.821Z,77.63
2017-03-31T01:21:13.778Z,77.44
2017-03-31T01:22:22.984Z,77.53
2017-03-31T01:23:31.945Z,77.25
2017-03-31T01:24:40.993Z,77.15
2017-03-31T01:25:49.946Z,77.63
2017-03-31T01:26:58.903Z,77.44
2017-03-31T01:28:08.133Z,77.63
2017-03-31T01:29:17.087Z,77.82
2017-03-31T01:30:26.037Z,77.82
2017-03-31T01:31:34.995Z,77.82
2017-03-31T01:32:43.949Z,78.2
2017-03-31T01:33:53.167Z,78.2
2017-03-31T01:35:02.126Z,78.49
2017-03-31T01:36:11.082Z,78.01
2017-03-31T01:37:20.041Z,78.39
2017-03-31T01:38:28.997Z,78.2
2017-03-31T01:39:38.258Z,78.3
2017-03-31T01:40:47.216Z,78.39
2017-03-31T01:41:56.170Z,77.92
2017-03-31T01:43:05.126Z,78.11
2017-03-31T01:44:14.076Z,78.3
2017-03-31T01:45:23.280Z,78.01
2017-03-31T01:46:32.244Z,78.01
2017-03-31T01:47:41.200Z,78.01
2017-03-31T01:48:50.154Z,78.11
2017-03-31T01:49:59.116Z,78.01
2017-03-31T01:51:08.377Z,77.63
2017-03-31T01:52:17.336Z,78.11
2017-03-31T01:53:26.293Z,77.53
2017-03-31T01:54:35.247Z,77.06
2017-03-31T01:55:44.204Z,77.92
2017-03-31T01:56:53.463Z,78.11
2017-03-31T01:58:02.416Z,78.2
2017-03-31T01:59:11.376Z,77.63
2017-03-31T02:00:20.330Z,77.3
2017-03-31T02:01:29.296Z,77.82
2017-03-31T02:02:38.547Z,78.07
2017-03-31T02:03:47.503Z,77.78
2017-03-31T02:04:56.459Z,77.97
2017-03-31T02:06:05.419Z,78.26
2017-03-31T02:07:14.371Z,77.5
2017-03-31T02:08:23.627Z,77.78
2017-03-31T02:09:32.588Z,77.78
2017-03-31T02:10:41.548Z,77.87
2017-03-31T02:11:50.502Z,77.78
2017-03-31T02:12:59.458Z,77.78
2017-03-31T02:14:08.720Z,77.78
2017-03-31T02:15:17.677Z,77.78
2017-03-31T02:16:26.641Z,77.97
2017-03-31T02:17:35.599Z,78.07
2017-03-31T02:18:44.561Z,78.26
2017-03-31T02:19:53.823Z,77.69
2017-03-31T02:21:03.468Z,77.69
2017-03-31T02:22:12.461Z,78.07
2017-03-31T02:23:21.417Z,77.78
2017-03-31T02:24:30.371Z,78.07
2017-03-31T02:25:39.631Z,78.07
2017-03-31T02:26:48.587Z,77.69
2017-03-31T02:27:57.542Z,78.26
2017-03-31T02:29:06.496Z,78.26
2017-03-31T02:30:15.448Z,78.45
2017-03-31T02:31:24.707Z,77.97
2017-03-31T02:32:33.664Z,78.16
2017-03-31T02:33:42.621Z,77.59
2017-03-31T02:34:51.582Z,78.16
2017-03-31T02:36:00.540Z,77.78
2017-03-31T02:37:09.800Z,77.69
2017-03-31T02:38:18.771Z,78.26
2017-03-31T02:39:27.729Z,78.07
2017-03-31T02:40:36.683Z,78.36
2017-03-31T02:41:45.638Z,78.45
2017-03-31T02:42:54.891Z,78.26
2017-03-31T02:44:03.858Z,79.02
2017-03-31T02:45:12.813Z,78.26
2017-03-31T02:46:21.766Z,78.55
2017-03-31T02:47:30.721Z,78.36
2017-03-31T02:48:39.975Z,78.16
2017-03-31T02:49:49.021Z,78.93
2017-03-31T02:50:57.985Z,78.16
2017-03-31T02:52:06.941Z,78.26
2017-03-31T02:53:15.897Z,78.36
2017-03-31T02:54:25.152Z,78.07
2017-03-31T02:55:34.105Z,77.87
2017-03-31T02:56:43.080Z,78.16
2017-03-31T02:57:52.038Z,77.87
2017-03-31T02:59:00.995Z,78.07
2017-03-31T03:00:10.255Z,78.16
2017-03-31T03:01:19.218Z,77.97
2017-03-31T03:02:28.184Z,77.78
2017-03-31T03:03:37.140Z,78.36
2017-03-31T03:04:46.108Z,78.16
2017-03-31T03:05:55.368Z,78.64
2017-03-31T03:07:04.321Z,78.36
2017-03-31T03:08:13.283Z,78.45
2017-03-31T03:09:22.243Z,78.36
2017-03-31T03:10:31.199Z,78.36
2017-03-31T03:11:40.454Z,78.89
2017-03-31T03:12:49.413Z,78.83
2017-03-31T03:13:58.371Z,79.02
2017-03-31T03:15:07.410Z,78.07
2017-03-31T03:16:16.364Z,78.07
2017-03-31T03:17:25.621Z,78.07
2017-03-31T03:18:34.590Z,77.78
2017-03-31T03:19:43.545Z,77.5
2017-03-31T03:20:52.505Z,77.4
2017-03-31T03:22:01.458Z,77.4
2017-03-31T03:23:10.721Z,77.3
2017-03-31T03:24:19.673Z,77.21
2017-03-31T03:25:28.631Z,77.55
2017-03-31T03:26:37.588Z,77.08
2017-03-31T03:27:46.545Z,77.3
2017-03-31T03:28:55.800Z,77.3
2017-03-31T03:30:04.756Z,77.21
2017-03-31T03:31:13.718Z,77.26
2017-03-31T03:32:22.674Z,77.21
2017-03-31T03:33:31.637Z,77.01
2017-03-31T03:34:40.897Z,76.98
2017-03-31T03:35:49.853Z,77.17
2017-03-31T03:36:58.811Z,77.08
2017-03-31T03:38:07.765Z,77.3
2017-03-31T03:39:16.719Z,77.17
2017-03-31T03:40:25.920Z,77.17
2017-03-31T03:41:34.874Z,77.26
2017-03-31T03:42:43.832Z,77.11
2017-03-31T03:43:52.786Z,77.08
2017-03-31T03:45:01.744Z,76.98
2017-03-31T03:46:11.004Z,76.98
2017-03-31T03:47:19.988Z,77.26
2017-03-31T03:48:28.951Z,77.26
2017-03-31T03:49:37.898Z,77.08
2017-03-31T03:50:53.118Z,76.98
2017-03-31T03:52:02.376Z,76.98
2017-03-31T03:53:11.332Z,76.79
2017-03-31T03:54:20.287Z,76.6
2017-03-31T03:55:29.245Z,76.88
2017-03-31T03:56:38.198Z,76.98
2017-03-31T03:57:47.412Z,76.88
2017-03-31T03:58:56.400Z,76.69
2017-03-31T04:00:05.352Z,76.69
2017-03-31T04:01:14.307Z,76.79
2017-03-31T04:02:23.262Z,76.69
2017-03-31T04:03:32.495Z,76.79
2017-03-31T04:04:41.485Z,76.79
2017-03-31T04:05:50.441Z,76.69
2017-03-31T04:06:59.395Z,76.69
2017-03-31T04:08:08.352Z,76.69
2017-03-31T04:09:17.611Z,76.6
2017-03-31T04:10:26.569Z,76.79
2017-03-31T04:11:35.528Z,76.88
2017-03-31T04:12:44.573Z,76.6
2017-03-31T04:13:54.179Z,76.79
2017-03-31T04:15:03.389Z,76.79
2017-03-31T04:16:12.347Z,76.79
2017-03-31T04:17:21.309Z,76.69
2017-03-31T04:18:30.261Z,76.69
2017-03-31T04:19:39.217Z,76.6
2017-03-31T04:20:48.518Z,76.5
2017-03-31T04:21:57.477Z,76.88
2017-03-31T04:23:06.437Z,76.79
2017-03-31T04:24:15.392Z,76.69
2017-03-31T04:25:24.342Z,76.88
2017-03-31T04:26:33.555Z,76.88
2017-03-31T04:27:42.511Z,76.69
2017-03-31T04:28:51.549Z,76.69
2017-03-31T04:30:00.506Z,76.6
2017-03-31T04:31:09.456Z,76.98
2017-03-31T04:32:18.660Z,76.88
2017-03-31T04:33:27.614Z,76.79
2017-03-31T04:34:36.568Z,76.79
2017-03-31T04:35:45.525Z,76.88
2017-03-31T04:36:54.483Z,76.6
2017-03-31T04:38:03.693Z,76.79
2017-03-31T04:39:12.646Z,76.79
2017-03-31T04:40:21.596Z,76.69
2017-03-31T04:41:30.635Z,76.5
2017-03-31T04:42:39.590Z,76.79
2017-03-31T04:43:48.792Z,76.69
2017-03-31T04:44:57.836Z,76.69
2017-03-31T04:46:06.796Z,76.79
2017-03-31T04:47:15.838Z,76.5
2017-03-31T04:48:24.794Z,76.6
2017-03-31T04:49:34.088Z,76.69
2017-03-31T04:50:43.039Z,76.79
2017-03-31T04:51:51.996Z,76.6
2017-03-31T04:53:00.952Z,76.69
2017-03-31T04:54:09.911Z,76.69
2017-03-31T04:55:19.118Z,76.4
2017-03-31T04:56:28.098Z,76.79
2017-03-31T04:57:37.058Z,76.88
2017-03-31T04:58:46.021Z,76.79
2017-03-31T04:59:54.978Z,76.88
2017-03-31T05:01:04.191Z,76.98
2017-03-31T05:02:13.648Z,76.98
2017-03-31T05:03:22.615Z,76.79
2017-03-31T05:04:31.575Z,76.98
2017-03-31T05:05:40.540Z,77.08
2017-03-31T05:06:49.745Z,77.08
2017-03-31T05:07:58.701Z,77.08
2017-03-31T05:09:08.068Z,76.88
2017-03-31T05:10:17.110Z,77.08
2017-03-31T05:11:26.066Z,77.08
2017-03-31T05:12:35.269Z,76.98
2017-03-31T05:13:44.224Z,76.98
2017-03-31T05:14:53.178Z,76.88
2017-03-31T05:16:02.133Z,76.79
2017-03-31T05:17:11.088Z,76.88
2017-03-31T05:18:20.295Z,76.5
2017-03-31T05:19:29.251Z,76.79
2017-03-31T05:20:38.302Z,76.69
2017-03-31T05:21:47.256Z,76.79
2017-03-31T05:22:56.213Z,76.5
2017-03-31T05:24:05.426Z,76.4
2017-03-31T05:25:14.379Z,76.21
2017-03-31T05:26:23.334Z,76.98
2017-03-31T05:27:32.317Z,76.6
2017-03-31T05:28:41.277Z,76.69
2017-03-31T05:29:50.482Z,76.69
2017-03-31T05:30:59.430Z,76.69
2017-03-31T05:32:08.383Z,76.31
2017-03-31T05:33:17.340Z,76.4
2017-03-31T05:34:26.294Z,76.69
2017-03-31T05:35:35.503Z,76.4
2017-03-31T05:36:44.457Z,76.79
2017-03-31T05:37:53.412Z,76.5
2017-03-31T05:39:02.780Z,76.69
2017-03-31T05:40:11.740Z,76.6
2017-03-31T05:41:20.947Z,76.69
2017-03-31T05:42:29.905Z,76.69
2017-03-31T05:43:38.861Z,76.5
2017-03-31T05:44:47.903Z,76.79
2017-03-31T05:45:56.946Z,76.69
2017-03-31T05:47:06.153Z,76.79
2017-03-31T05:48:15.106Z,76.5
2017-03-31T05:49:24.058Z,76.6
2017-03-31T05:50:33.016Z,76.5
2017-03-31T05:51:42.090Z,76.69
2017-03-31T05:52:51.302Z,76.12
2017-03-31T05:54:00.347Z,76.21
2017-03-31T05:55:09.307Z,76.45
2017-03-31T05:56:18.271Z,76.16
2017-03-31T05:57:27.232Z,76.12
2017-03-31T05:58:36.447Z,76.31
2017-03-31T05:59:45.404Z,76.35
2017-03-31T06:00:54.448Z,75.87
2017-03-31T06:02:03.408Z,76.25
2017-03-31T06:03:12.358Z,76.35
2017-03-31T06:04:21.564Z,76.35
2017-03-31T06:05:30.520Z,76.06
2017-03-31T06:06:39.480Z,75.96
2017-03-31T06:07:48.525Z,76.35
2017-03-31T06:08:57.491Z,75.68
2017-03-31T06:10:06.699Z,75.96
2017-03-31T06:11:15.653Z,75.87
2017-03-31T06:12:24.608Z,75.78
2017-03-31T06:13:33.567Z,75.49
2017-03-31T06:14:42.606Z,75.78
2017-03-31T06:15:51.815Z,74.91
2017-03-31T06:17:01.100Z,75.2
2017-03-31T06:18:10.060Z,75.39
2017-03-31T06:19:19.016Z,75.49
2017-03-31T06:20:28.001Z,74.91
2017-03-31T06:21:37.208Z,74.91
2017-03-31T06:22:46.159Z,74.82
2017-03-31T06:23:55.112Z,74.91
2017-03-31T06:25:04.067Z,74.82
2017-03-31T06:26:13.046Z,74.73
2017-03-31T06:27:22.262Z,75.2
2017-03-31T06:28:31.216Z,74.91
2017-03-31T06:29:40.262Z,74.91
2017-03-31T06:30:49.219Z,74.44
2017-03-31T06:31:58.172Z,74.48
2017-03-31T06:33:07.386Z,74.82
2017-03-31T06:34:16.357Z,74.57
2017-03-31T06:35:25.316Z,74.19
2017-03-31T06:36:34.271Z,74.28
2017-03-31T06:37:43.223Z,73.9
2017-03-31T06:38:52.424Z,73.99
2017-03-31T06:40:01.389Z,74.09
2017-03-31T06:41:10.344Z,73.61
2017-03-31T06:42:19.302Z,73.61
2017-03-31T06:43:28.258Z,73.71
2017-03-31T06:44:37.463Z,73.52
2017-03-31T06:45:46.452Z,73.52
2017-03-31T06:46:55.406Z,73.61
2017-03-31T06:48:04.359Z,73.23
2017-03-31T06:49:13.324Z,72.66
2017-03-31T06:50:22.530Z,72.66
2017-03-31T06:51:31.483Z,72.85
2017-03-31T06:52:40.525Z,72.75
2017-03-31T06:53:49.483Z,72.94
2017-03-31T06:54:58.524Z,72.47
2017-03-31T06:56:07.731Z,72.28
2017-03-31T06:57:16.694Z,71.93
2017-03-31T06:58:25.648Z,71.7
2017-03-31T06:59:34.613Z,71.93
2017-03-31T07:00:43.568Z,71.93
2017-03-31T07:01:52.773Z,71.36
2017-03-31T07:03:01.737Z,71.07
2017-03-31T07:04:10.694Z,71.45
2017-03-31T07:05:19.648Z,71.45
2017-03-31T07:06:28.603Z,71.16
2017-03-31T07:07:37.822Z,70.87
2017-03-31T07:08:46.793Z,70.87
2017-03-31T07:09:55.750Z,71.26
2017-03-31T07:11:04.714Z,70.5
2017-03-31T07:12:13.760Z,70.5
2017-03-31T07:13:22.970Z,70.21
2017-03-31T07:14:31.930Z,70.5
2017-03-31T07:15:40.891Z,69.92
2017-03-31T07:16:49.844Z,70.34
2017-03-31T07:17:58.978Z,69.76
2017-03-31T07:19:08.192Z,69.95
2017-03-31T07:20:17.246Z,69.48
2017-03-31T07:21:26.204Z,69.19
2017-03-31T07:22:35.164Z,69.38
2017-03-31T07:23:44.122Z,69.19
2017-03-31T07:24:53.328Z,68.71
2017-03-31T07:26:02.283Z,69
2017-03-31T07:27:11.246Z,69
2017-03-31T07:28:20.204Z,68.62
2017-03-31T07:29:29.180Z,68.33
2017-03-31T07:30:38.390Z,68.55
2017-03-31T07:31:47.434Z,68.84
2017-03-31T07:32:56.389Z,68.07
2017-03-31T07:34:05.352Z,67.88
2017-03-31T07:35:14.315Z,67.41
2017-03-31T07:36:23.522Z,67.5
2017-03-31T07:37:32.481Z,67.21
2017-03-31T07:38:41.525Z,67.41
2017-03-31T07:39:50.479Z,67.11
2017-03-31T07:40:59.519Z,67.11
2017-03-31T07:42:08.733Z,66.64
2017-03-31T07:43:17.698Z,66.83
2017-03-31T07:44:26.665Z,66.64
2017-03-31T07:45:35.714Z,66.35
2017-03-31T07:46:44.666Z,66.25
2017-03-31T07:47:54.025Z,66.06
2017-03-31T07:49:02.985Z,66.09
2017-03-31T07:50:11.946Z,66
2017-03-31T07:51:20.908Z,65.62
2017-03-31T07:52:29.868Z,65.71
2017-03-31T07:53:39.402Z,65.81
2017-03-31T07:54:48.361Z,65.23
2017-03-31T07:55:57.318Z,65.05
2017-03-31T07:57:06.279Z,64.85
2017-03-31T07:58:15.324Z,64.76
2017-03-31T07:59:24.533Z,64.28
2017-03-31T08:00:33.489Z,64.76
2017-03-31T08:01:42.449Z,63.73
2017-03-31T08:02:51.407Z,64.02
2017-03-31T08:04:00.372Z,63.64
2017-03-31T08:05:09.578Z,63.26
2017-03-31T08:06:18.623Z,62.87
2017-03-31T08:07:27.579Z,63.16
2017-03-31T08:08:36.536Z,62.68
2017-03-31T08:09:45.492Z,62.3
2017-03-31T08:10:54.790Z,62.13
2017-03-31T08:12:03.747Z,61.56
2017-03-31T08:13:12.705Z,61.18
2017-03-31T08:14:21.667Z,61.37
2017-03-31T08:15:30.636Z,60.89
2017-03-31T08:16:39.849Z,60.79
2017-03-31T08:17:48.816Z,60.31
2017-03-31T08:18:57.776Z,59.74
2017-03-31T08:20:06.740Z,60.22
2017-03-31T08:21:15.702Z,59.48
2017-03-31T08:22:24.917Z,59.58
2017-03-31T08:23:33.895Z,59.48
2017-03-31T08:24:42.937Z,59.29
2017-03-31T08:25:51.900Z,59.19
2017-03-31T08:27:00.856Z,59.19
2017-03-31T08:28:10.067Z,58.71
2017-03-31T08:29:19.021Z,59.29
2017-03-31T08:30:27.980Z,58.71
2017-03-31T08:31:36.940Z,58.33
2017-03-31T08:32:45.899Z,57.95
2017-03-31T08:33:55.195Z,57.37
2017-03-31T08:35:04.240Z,57.65
2017-03-31T08:36:13.288Z,57.18
2017-03-31T08:37:22.250Z,57.28
2017-03-31T08:38:31.208Z,57.28
2017-03-31T08:39:40.423Z,56.73
2017-03-31T08:40:49.381Z,57.21
2017-03-31T08:41:58.424Z,56.82
2017-03-31T08:43:07.379Z,56.73
2017-03-31T08:44:16.343Z,56.44
2017-03-31T08:45:25.550Z,56.53
2017-03-31T08:46:34.550Z,56.73
2017-03-31T08:47:43.606Z,56.05
2017-03-31T08:48:52.566Z,56.05
2017-03-31T08:50:01.524Z,55.86
2017-03-31T08:51:10.734Z,55.69
2017-03-31T08:52:19.694Z,55.57
2017-03-31T08:53:28.655Z,55.29
2017-03-31T08:54:37.617Z,55.47
2017-03-31T08:55:46.591Z,55.51
2017-03-31T08:56:55.849Z,55.22
2017-03-31T08:58:04.806Z,54.93
2017-03-31T08:59:13.766Z,54.83
2017-03-31T09:00:22.728Z,54.93
2017-03-31T09:01:31.692Z,54.93
2017-03-31T09:02:40.908Z,55.12
2017-03-31T09:03:49.863Z,55.6
2017-03-31T09:04:58.820Z,55.51
2017-03-31T09:06:07.814Z,55.12
2017-03-31T09:07:16.861Z,54.93
2017-03-31T09:08:26.122Z,54.77
2017-03-31T09:09:35.090Z,54.47
2017-03-31T09:10:44.050Z,54.67
2017-03-31T09:11:53.104Z,54.19
2017-03-31T09:13:02.065Z,54.09
2017-03-31T09:14:11.295Z,54.28
2017-03-31T09:15:20.259Z,54
2017-03-31T09:16:29.222Z,53.52
2017-03-31T09:17:38.185Z,54
2017-03-31T09:18:47.145Z,54
2017-03-31T09:19:56.361Z,53.8
2017-03-31T09:21:05.733Z,54
2017-03-31T09:22:14.699Z,53.52
2017-03-31T09:23:23.656Z,53.61
2017-03-31T09:24:32.614Z,53.13
2017-03-31T09:25:41.825Z,53.7
2017-03-31T09:26:50.785Z,53.25
2017-03-31T09:27:59.756Z,53.45
2017-03-31T09:29:08.811Z,53.74
2017-03-31T09:30:17.767Z,52.77
2017-03-31T09:31:26.980Z,53.35
2017-03-31T09:32:35.935Z,53.35
2017-03-31T09:33:44.898Z,53.16
2017-03-31T09:34:53.857Z,53.06
2017-03-31T09:36:03.552Z,53.35
2017-03-31T09:37:12.758Z,53.35
2017-03-31T09:38:21.717Z,52.97
2017-03-31T09:39:30.678Z,53.06
2017-03-31T09:40:39.652Z,52.2
2017-03-31T09:41:48.612Z,52.58
2017-03-31T09:42:57.863Z,52.61
2017-03-31T09:44:06.837Z,51.93
2017-03-31T09:45:15.804Z,51.91
2017-03-31T09:46:24.771Z,51.93
2017-03-31T09:47:33.820Z,51.74
2017-03-31T09:48:43.031Z,51.55
2017-03-31T09:49:52.083Z,51.84
2017-03-31T09:51:01.416Z,51.74
2017-03-31T09:52:10.472Z,51.74
2017-03-31T09:53:19.429Z,51.45
2017-03-31T09:54:28.643Z,51.35
2017-03-31T09:55:37.608Z,51.35
2017-03-31T09:56:46.578Z,50.97
2017-03-31T09:57:55.538Z,51.07
2017-03-31T09:59:04.502Z,50.87
2017-03-31T10:00:13.713Z,50.68
2017-03-31T10:01:22.680Z,50.97
2017-03-31T10:02:31.645Z,50.97
2017-03-31T10:03:40.609Z,50.99
2017-03-31T10:04:49.572Z,50.99
2017-03-31T10:05:58.787Z,50.87
2017-03-31T10:07:07.751Z,50.59
2017-03-31T10:08:16.796Z,50.68
2017-03-31T10:09:25.849Z,50.78
2017-03-31T10:10:34.814Z,50.78
2017-03-31T10:11:44.031Z,51.09
2017-03-31T10:12:53.078Z,51.19
2017-03-31T10:14:02.037Z,50.99
2017-03-31T10:15:11.004Z,50.99
2017-03-31T10:16:19.966Z,50.71
2017-03-31T10:17:29.179Z,50.71
2017-03-31T10:18:38.222Z,50.51
2017-03-31T10:19:47.182Z,50.32
2017-03-31T10:20:56.139Z,50.13
2017-03-31T10:22:05.136Z,50.13
2017-03-31T10:23:14.355Z,49.84
2017-03-31T10:24:23.318Z,49.87
2017-03-31T10:25:32.277Z,49.48
2017-03-31T10:26:41.243Z,49.29
2017-03-31T10:27:50.203Z,49.58
2017-03-31T10:28:59.418Z,49.38
2017-03-31T10:30:08.473Z,49.1
2017-03-31T10:31:17.433Z,49.58
2017-03-31T10:32:26.396Z,49.19
2017-03-31T10:33:35.360Z,49.19
2017-03-31T10:34:44.577Z,48.9
2017-03-31T10:35:53.540Z,49.02
2017-03-31T10:37:02.507Z,48.9
2017-03-31T10:38:11.470Z,48.64
2017-03-31T10:39:20.435Z,48.52
2017-03-31T10:40:29.649Z,48.54
2017-03-31T10:41:38.608Z,48.06
2017-03-31T10:42:47.570Z,47.77
2017-03-31T10:43:56.622Z,48.16
2017-03-31T10:45:05.673Z,47.67
2017-03-31T10:46:14.889Z,47.87
2017-03-31T10:47:23.855Z,48.25
2017-03-31T10:48:32.818Z,48.25
2017-03-31T10:49:41.784Z,47.39
2017-03-31T10:50:50.751Z,47.97
2017-03-31T10:52:00.017Z,48.16
2017-03-31T10:53:08.989Z,47.39
2017-03-31T10:54:17.993Z,47.67
2017-03-31T10:55:26.953Z,47.29
2017-03-31T10:56:35.911Z,47.1
2017-03-31T10:57:45.123Z,47.29
2017-03-31T10:58:54.167Z,46.83
2017-03-31T11:00:03.128Z,47.22
2017-03-31T11:01:12.186Z,47.12
2017-03-31T11:02:21.152Z,46.25
2017-03-31T11:03:30.368Z,46.06
2017-03-31T11:04:39.334Z,45.97
2017-03-31T11:05:48.298Z,45.87
2017-03-31T11:06:57.258Z,45.58
2017-03-31T11:08:06.223Z,45.87
2017-03-31T11:09:15.440Z,45.97
2017-03-31T11:10:24.411Z,45.97
2017-03-31T11:11:33.375Z,45.39
2017-03-31T11:12:42.336Z,45.29
2017-03-31T11:13:51.296Z,45.39
2017-03-31T11:15:00.507Z,45.97
2017-03-31T11:16:09.471Z,45.97
2017-03-31T11:17:18.435Z,45.39
2017-03-31T11:18:27.403Z,45.1
2017-03-31T11:19:36.360Z,45.2
2017-03-31T11:20:45.571Z,44.9
2017-03-31T11:21:54.531Z,45.2
2017-03-31T11:23:03.491Z,44.9
2017-03-31T11:24:12.459Z,45.2
2017-03-31T11:25:21.418Z,45.2
2017-03-31T11:26:30.633Z,45.29
2017-03-31T11:27:39.596Z,44.71
2017-03-31T11:28:48.557Z,44.23
2017-03-31T11:29:57.524Z,44.23
2017-03-31T11:31:06.488Z,43.94
2017-03-31T11:32:15.702Z,44.13
2017-03-31T11:33:24.666Z,43.94
2017-03-31T11:34:33.631Z,44.04
2017-03-31T11:35:42.597Z,43.94
2017-03-31T11:36:51.559Z,43.55
2017-03-31T11:38:00.907Z,43.27
2017-03-31T11:39:09.869Z,42.8
2017-03-31T11:40:18.829Z,42.32
2017-03-31T11:41:27.796Z,42.3
2017-03-31T11:42:36.763Z,42.61
2017-03-31T11:43:45.971Z,42.61
2017-03-31T11:44:54.932Z,42.52
2017-03-31T11:46:03.898Z,42.42
2017-03-31T11:47:12.868Z,42.42
2017-03-31T11:48:21.923Z,42.03
2017-03-31T11:49:31.134Z,42.13
2017-03-31T11:50:40.093Z,42.23
2017-03-31T11:51:49.148Z,42.13
2017-03-31T11:52:58.112Z,41.65
2017-03-31T11:54:07.073Z,42.13
2017-03-31T11:55:16.371Z,42.13
2017-03-31T11:56:25.334Z,41.94
2017-03-31T11:57:34.300Z,41.65
2017-03-31T11:58:43.262Z,41.17
2017-03-31T11:59:52.225Z,41.27
2017-03-31T12:01:01.529Z,41.94
2017-03-31T12:02:10.487Z,41.27
2017-03-31T12:03:19.449Z,40.97
2017-03-31T12:04:28.409Z,40.59
2017-03-31T12:05:37.377Z,40.88
2017-03-31T12:06:46.591Z,40.8
2017-03-31T12:07:55.580Z,40.78
2017-03-31T12:09:04.546Z,40.69
2017-03-31T12:10:13.506Z,40.7
2017-03-31T12:11:22.469Z,40.3
2017-03-31T12:12:31.683Z,40.3
2017-03-31T12:13:40.647Z,40.88
2017-03-31T12:14:49.698Z,40.39
2017-03-31T12:15:58.834Z,40.2
2017-03-31T12:17:07.797Z,40.69
2017-03-31T12:18:17.064Z,40.2
2017-03-31T12:19:26.022Z,40.01
2017-03-31T12:20:34.989Z,39.72
2017-03-31T12:21:43.955Z,40.11
2017-03-31T12:22:52.923Z,39.91
2017-03-31T12:24:02.141Z,40.3
2017-03-31T12:25:11.519Z,40.39
2017-03-31T12:26:20.485Z,40.59
2017-03-31T12:27:29.488Z,40.61
2017-03-31T12:28:38.490Z,40.9
2017-03-31T12:29:47.704Z,40.51
2017-03-31T12:30:56.662Z,40.42
2017-03-31T12:32:05.629Z,40.42
2017-03-31T12:33:14.590Z,40.9
2017-03-31T12:34:23.876Z,40.61
2017-03-31T12:35:33.085Z,40.9
2017-03-31T12:36:42.051Z,40.51
2017-03-31T12:37:51.013Z,40.61
2017-03-31T12:39:00.302Z,40.42
2017-03-31T12:40:09.267Z,40.61
2017-03-31T12:41:18.536Z,40.61
2017-03-31T12:42:27.504Z,40.7
2017-03-31T12:43:36.468Z,40.42
2017-03-31T12:44:45.428Z,40.42
2017-03-31T12:45:54.391Z,40.22
2017-03-31T12:47:03.605Z,39.94
2017-03-31T12:48:12.652Z,39.94
2017-03-31T12:49:21.622Z,39.54
2017-03-31T12:50:30.583Z,39.74
2017-03-31T12:51:39.548Z,39.45
2017-03-31T12:52:48.762Z,39.74
2017-03-31T12:53:57.720Z,39.64
2017-03-31T12:55:06.682Z,39.84
2017-03-31T12:56:15.735Z,39.54
2017-03-31T12:57:24.740Z,38.87
2017-03-31T12:58:33.957Z,38.49
2017-03-31T12:59:42.921Z,38.49
2017-03-31T13:00:51.975Z,38.58
2017-03-31T13:02:00.942Z,38.49
2017-03-31T13:03:09.904Z,38.39
2017-03-31T13:04:19.119Z,38.49
2017-03-31T13:05:28.113Z,38.6
2017-03-31T13:06:37.159Z,38.68
2017-03-31T13:07:46.126Z,38.7
2017-03-31T13:08:55.183Z,38.99
2017-03-31T13:10:04.402Z,38.89
2017-03-31T13:11:13.369Z,38.99
2017-03-31T13:12:22.342Z,38.41
2017-03-31T13:13:31.314Z,38.6
2017-03-31T13:14:40.287Z,38.87
2017-03-31T13:15:49.590Z,38.31
2017-03-31T13:16:58.881Z,38.51
2017-03-31T13:18:07.843Z,38.41
2017-03-31T13:19:16.804Z,38.41
2017-03-31T13:20:25.767Z,38.41
2017-03-31T13:21:34.984Z,38.89
2017-03-31T13:22:43.948Z,38.79
2017-03-31T13:23:52.903Z,38.41
2017-03-31T13:25:01.871Z,38.31
2017-03-31T13:26:10.835Z,38.79
2017-03-31T13:27:20.376Z,38.41
2017-03-31T13:28:29.337Z,38.7
2017-03-31T13:29:38.306Z,38.7
2017-03-31T13:30:47.269Z,38.89
2017-03-31T13:31:56.319Z,38.6
2017-03-31T13:33:05.585Z,38.7
2017-03-31T13:34:14.547Z,38.99
2017-03-31T13:35:23.544Z,38.7
2017-03-31T13:36:32.514Z,39.09
2017-03-31T13:37:41.482Z,38.7
2017-03-31T13:38:50.704Z,38.99
2017-03-31T13:39:59.668Z,38.99
2017-03-31T13:41:08.633Z,39.09
2017-03-31T13:42:17.595Z,38.7
2017-03-31T13:43:26.555Z,38.89
2017-03-31T13:44:35.773Z,38.89
2017-03-31T13:45:44.731Z,38.7
2017-03-31T13:46:53.695Z,38.89
2017-03-31T13:48:02.662Z,39.09
2017-03-31T13:49:11.626Z,38.79
2017-03-31T13:50:20.838Z,38.99
2017-03-31T13:51:29.806Z,38.79
2017-03-31T13:52:38.767Z,39.09
2017-03-31T13:53:47.732Z,39.28
2017-03-31T13:54:56.703Z,39.18
2017-03-31T13:56:05.920Z,39.18
2017-03-31T13:57:14.888Z,39.28
2017-03-31T13:58:23.939Z,39.86
2017-03-31T13:59:32.900Z,39.28
2017-03-31T14:00:41.863Z,39.28
2017-03-31T14:01:51.080Z,39.57
2017-03-31T14:03:00.044Z,39.66
2017-03-31T14:04:09.010Z,39.57
2017-03-31T14:05:18.060Z,39.66
2017-03-31T14:06:27.026Z,39.37
2017-03-31T14:07:36.291Z,39.86
2017-03-31T14:08:45.253Z,39.47
2017-03-31T14:09:54.218Z,39.57
2017-03-31T14:11:03.190Z,39.09
2017-03-31T14:12:12.157Z,38.89
2017-03-31T14:13:21.372Z,38.99
2017-03-31T14:14:30.337Z,39.28
2017-03-31T14:15:40.133Z,39.09
2017-03-31T14:16:49.094Z,39.09
2017-03-31T14:17:58.056Z,39.28
2017-03-31T14:19:07.318Z,39.09
2017-03-31T14:20:16.279Z,39.66
2017-03-31T14:21:25.245Z,39.66
2017-03-31T14:22:34.297Z,39.37
2017-03-31T14:23:43.264Z,39.09
2017-03-31T14:24:52.805Z,39.18
2017-03-31T14:26:01.764Z,38.89
2017-03-31T14:27:10.733Z,39.09
2017-03-31T14:28:19.695Z,39.76
2017-03-31T14:29:28.664Z,39.66
2017-03-31T14:30:37.962Z,39.76
2017-03-31T14:31:46.926Z,39.57
2017-03-31T14:32:55.978Z,39.47
2017-03-31T14:34:05.030Z,39.47
2017-03-31T14:35:14.166Z,39.28
2017-03-31T14:36:23.435Z,39.28
2017-03-31T14:37:32.730Z,39.47
2017-03-31T14:38:41.690Z,39.28
2017-03-31T14:39:50.652Z,39.37
2017-03-31T14:40:59.622Z,39.66
2017-03-31T14:42:08.839Z,39.66
2017-03-31T14:43:17.804Z,39.76
2017-03-31T14:44:26.771Z,39.95
2017-03-31T14:45:35.736Z,39.95
2017-03-31T14:46:44.700Z,39.66
2017-03-31T14:47:53.935Z,40.05
2017-03-31T14:49:03.059Z,39.95
2017-03-31T14:50:12.032Z,39.66
2017-03-31T14:51:21.065Z,39.66
2017-03-31T14:52:30.027Z,39.47
2017-03-31T14:53:39.287Z,39.47